Terminal Aerodrome Forecast
Issued by NWS

Home | Current Version | Previous Version | Text Only | Print | Product List | Glossary On
Versions: 1 2 3 4 5 6 7 8 9 10 11 12 13 14 15 16 17 18 19
587
FTAK31 PAJN 110641 AAA
TAFAYA
TAF AMD
PAYA 110641Z 1107/1206 10010G18KT P6SM -RA SCT020 OVC045
      WS020/14035KT
      TEMPO 1111/1115 6SM -RA BR FEW015 BKN025 OVC030
     FM111500 09006KT 6SM -SHRA FEW015 BKN025 OVC030
     FM120000 07005KT P6SM VCSH OVC050=

USA.gov is the U.S. government's official web portal to all federal, state and local government web resources and services.